createdAt,value
2023-05-07T00:00:48.901Z,9.56
2023-05-07T00:02:50.847Z,9.55
2023-05-07T00:04:52.706Z,9.56
2023-05-07T00:06:54.327Z,9.56
2023-05-07T00:08:57.584Z,9.55
2023-05-07T00:10:59.516Z,9.55
2023-05-07T00:13:01.106Z,9.55
2023-05-07T00:15:03.595Z,9.56
2023-05-07T00:17:06.832Z,9.57
2023-05-07T00:19:08.653Z,9.56
2023-05-07T00:21:10.193Z,9.55
2023-05-07T00:23:11.826Z,9.56
2023-05-07T00:25:13.681Z,9.55
2023-05-07T00:27:15.603Z,9.56
2023-05-07T00:29:18.724Z,9.56
2023-05-07T00:31:20.629Z,9.57
2023-05-07T00:33:23.712Z,9.59
2023-05-07T00:35:26.042Z,9.59
2023-05-07T00:37:27.920Z,9.60
2023-05-07T00:39:29.552Z,9.60
2023-05-07T00:41:31.388Z,9.60
2023-05-07T00:43:33.043Z,9.60
2023-05-07T00:45:35.160Z,9.58
2023-05-07T00:47:38.323Z,9.58
2023-05-07T00:49:43.891Z,9.59
2023-05-07T00:51:46.418Z,9.58
2023-05-07T00:53:48.669Z,9.59
2023-05-07T00:55:50.457Z,9.59
2023-05-07T00:57:53.141Z,9.58
2023-05-07T00:59:54.809Z,9.58
2023-05-07T01:01:56.684Z,9.58
2023-05-07T01:03:58.586Z,9.57
2023-05-07T01:06:03.737Z,9.57
2023-05-07T01:08:05.878Z,9.57
2023-05-07T01:10:09.351Z,9.55
2023-05-07T01:12:11.892Z,9.55
2023-05-07T01:14:13.662Z,9.53
2023-05-07T01:16:15.279Z,9.51
2023-05-07T01:18:17.598Z,9.50
2023-05-07T01:20:19.887Z,9.48
2023-05-07T01:22:31.099Z,9.48
2023-05-07T01:24:33.360Z,9.45
2023-05-07T01:26:35.263Z,9.45
2023-05-07T01:28:37.933Z,9.44
2023-05-07T01:30:50.642Z,9.44
2023-05-07T01:32:57.799Z,9.41
2023-05-07T01:35:01.350Z,9.40
2023-05-07T01:37:03.867Z,9.38
2023-05-07T01:39:07.854Z,9.38
2023-05-07T01:41:09.626Z,9.38
2023-05-07T01:43:12.030Z,9.37
2023-05-07T01:45:13.874Z,9.37
2023-05-07T01:47:16.460Z,9.37
2023-05-07T01:49:18.406Z,9.37
2023-05-07T01:51:20.712Z,9.37
2023-05-07T01:53:22.220Z,9.36
2023-05-07T01:55:25.316Z,9.35
2023-05-07T01:57:26.961Z,9.34
2023-05-07T01:59:28.582Z,9.33
2023-05-07T02:01:30.524Z,9.32
2023-05-07T02:03:32.449Z,9.32
2023-05-07T02:05:34.380Z,9.29
2023-05-07T02:07:36.203Z,9.27
2023-05-07T02:09:38.143Z,9.27
2023-05-07T02:11:41.101Z,9.26
2023-05-07T02:13:42.911Z,9.26
2023-05-07T02:15:44.891Z,9.25
2023-05-07T02:18:03.977Z,9.25
2023-05-07T02:20:07.330Z,9.21
2023-05-07T02:22:10.980Z,9.20
2023-05-07T02:24:13.964Z,9.18
2023-05-07T02:26:15.899Z,9.16
2023-05-07T02:28:18.889Z,9.15
2023-05-07T02:30:20.641Z,9.13
2023-05-07T02:32:22.285Z,9.12
2023-05-07T02:34:24.109Z,9.10
2023-05-07T02:36:25.888Z,9.11
2023-05-07T02:38:27.743Z,9.10
2023-05-07T02:40:29.229Z,9.10
2023-05-07T02:42:30.997Z,9.09
2023-05-07T02:44:34.488Z,9.09
2023-05-07T02:46:36.303Z,9.06
2023-05-07T02:48:37.985Z,9.06
2023-05-07T02:50:39.545Z,9.06
2023-05-07T02:52:41.170Z,9.05
2023-05-07T02:54:42.748Z,9.05
2023-05-07T02:56:44.667Z,9.03
2023-05-07T02:58:46.533Z,9.03
2023-05-07T03:00:49.666Z,9.01
2023-05-07T03:02:51.705Z,9.00
2023-05-07T03:04:53.325Z,8.97
2023-05-07T03:06:55.332Z,8.97
2023-05-07T03:08:56.944Z,8.95
2023-05-07T03:10:59.080Z,8.93
2023-05-07T03:13:00.715Z,8.91
2023-05-07T03:15:02.668Z,8.89
2023-05-07T03:17:05.600Z,8.88
2023-05-07T03:19:07.511Z,8.86
2023-05-07T03:21:09.437Z,8.84
2023-05-07T03:23:11.571Z,8.83
2023-05-07T03:25:13.385Z,8.81
2023-05-07T03:27:15.265Z,8.79
2023-05-07T03:29:16.809Z,8.78
2023-05-07T03:31:19.461Z,8.77
2023-05-07T03:33:22.532Z,8.76
2023-05-07T03:35:24.470Z,8.75
2023-05-07T03:37:27.190Z,8.74
2023-05-07T03:39:29.485Z,8.73
2023-05-07T03:41:33.675Z,8.70
2023-05-07T03:43:35.312Z,8.70
2023-05-07T03:45:38.459Z,8.68
2023-05-07T03:47:40.482Z,8.67
2023-05-07T03:49:46.122Z,8.66
2023-05-07T03:51:47.763Z,8.64
2023-05-07T03:53:49.641Z,8.63
2023-05-07T03:55:51.314Z,8.61
2023-05-07T03:57:53.603Z,8.60
2023-05-07T03:59:55.463Z,8.59
2023-05-07T04:01:59.170Z,8.58
2023-05-07T04:04:01.125Z,8.57
2023-05-07T04:06:04.207Z,8.55
2023-05-07T04:08:05.779Z,8.54
2023-05-07T04:10:08.065Z,8.54
2023-05-07T04:12:09.878Z,8.55
2023-05-07T04:14:12.651Z,8.54
2023-05-07T04:16:14.572Z,8.54
2023-05-07T04:18:16.316Z,8.53
2023-05-07T04:20:18.669Z,8.53
2023-05-07T04:22:22.920Z,8.56
2023-05-07T04:24:24.542Z,8.56
2023-05-07T04:26:26.094Z,8.58
2023-05-07T04:28:27.621Z,8.59
2023-05-07T04:30:30.082Z,8.59
2023-05-07T04:32:31.957Z,8.62
2023-05-07T04:34:33.738Z,8.63
2023-05-07T04:36:35.396Z,8.65
2023-05-07T04:38:38.408Z,8.67
2023-05-07T04:40:40.100Z,8.69
2023-05-07T04:42:41.689Z,8.72
2023-05-07T04:44:43.736Z,8.74
2023-05-07T04:46:47.724Z,8.77
2023-05-07T04:48:49.374Z,8.81
2023-05-07T04:50:51.498Z,8.86
2023-05-07T04:52:53.153Z,8.91
2023-05-07T04:54:56.090Z,8.95
2023-05-07T04:56:57.724Z,9.00
2023-05-07T04:58:59.476Z,9.04
2023-05-07T05:01:01.696Z,9.08
2023-05-07T05:03:03.721Z,9.14
2023-05-07T05:05:06.649Z,9.19
2023-05-07T05:07:08.485Z,9.25
2023-05-07T05:09:11.619Z,9.31
2023-05-07T05:11:14.739Z,9.37
2023-05-07T05:13:16.595Z,9.41
2023-05-07T05:15:18.700Z,9.46
2023-05-07T05:17:20.350Z,9.50
2023-05-07T05:19:22.032Z,9.55
2023-05-07T05:21:23.667Z,9.60
2023-05-07T05:23:25.932Z,9.64
2023-05-07T05:25:27.776Z,9.68
2023-05-07T05:27:31.170Z,9.72
2023-05-07T05:29:33.057Z,9.76
2023-05-07T05:31:34.793Z,9.79
2023-05-07T05:33:36.398Z,9.86
2023-05-07T05:35:38.842Z,9.90
2023-05-07T05:37:40.349Z,9.94
2023-05-07T05:39:41.919Z,10.00
2023-05-07T05:41:43.834Z,10.04
2023-05-07T05:43:46.892Z,10.09
2023-05-07T05:45:48.548Z,10.18
2023-05-07T05:47:50.139Z,10.25
2023-05-07T05:49:52.014Z,10.34
2023-05-07T05:51:53.832Z,10.41
2023-05-07T05:53:55.703Z,10.51
2023-05-07T05:55:58.003Z,10.57
2023-05-07T05:57:59.766Z,10.66
2023-05-07T06:00:03.221Z,10.74
2023-05-07T06:02:04.827Z,10.84
2023-05-07T06:04:06.677Z,10.93
2023-05-07T06:06:08.251Z,11.02
2023-05-07T06:08:10.291Z,11.09
2023-05-07T06:10:11.960Z,11.20
2023-05-07T06:12:13.805Z,11.30
2023-05-07T06:14:15.351Z,11.38
2023-05-07T06:16:18.560Z,11.51
2023-05-07T06:18:20.147Z,11.62
2023-05-07T06:20:21.737Z,11.74
2023-05-07T06:22:23.529Z,11.87
2023-05-07T06:24:25.590Z,11.97
2023-05-07T06:26:28.907Z,12.08
2023-05-07T06:28:30.632Z,12.20
2023-05-07T06:30:32.415Z,12.32
2023-05-07T06:32:35.912Z,12.46
2023-05-07T06:34:38.248Z,12.57
2023-05-07T06:36:39.799Z,12.71
2023-05-07T06:38:41.389Z,12.83
2023-05-07T06:40:43.425Z,12.95
2023-05-07T06:42:45.366Z,13.06
2023-05-07T06:44:47.048Z,13.15
2023-05-07T06:46:48.969Z,13.26
2023-05-07T06:48:53.048Z,13.36
2023-05-07T06:50:54.796Z,13.46
2023-05-07T06:52:56.367Z,13.56
2023-05-07T06:54:57.967Z,13.66
2023-05-07T06:56:59.727Z,13.77
2023-05-07T06:59:01.781Z,13.87
2023-05-07T07:01:03.651Z,13.96
2023-05-07T07:03:05.822Z,14.07
2023-05-07T07:05:10.189Z,14.18
2023-05-07T07:07:11.827Z,14.29
2023-05-07T07:09:13.976Z,14.40
2023-05-07T07:11:16.596Z,14.50
2023-05-07T07:13:18.476Z,14.59
2023-05-07T07:15:21.053Z,14.71
2023-05-07T07:17:24.640Z,14.82
2023-05-07T07:19:27.424Z,14.94
2023-05-07T07:21:30.681Z,15.08
2023-05-07T07:23:32.697Z,15.19
2023-05-07T07:25:34.681Z,15.31
2023-05-07T07:27:37.700Z,15.41
2023-05-07T07:29:39.616Z,15.50
2023-05-07T07:31:41.294Z,15.59
2023-05-07T07:33:43.329Z,15.68
2023-05-07T07:35:45.166Z,15.77
2023-05-07T07:37:48.378Z,15.85
2023-05-07T07:39:49.989Z,15.90
2023-05-07T07:41:51.793Z,15.96
2023-05-07T07:43:53.649Z,16.03
2023-05-07T07:45:55.238Z,16.11
2023-05-07T07:47:56.800Z,16.19
2023-05-07T07:49:58.735Z,16.26
2023-05-07T07:52:00.355Z,16.34
2023-05-07T07:54:04.034Z,16.42
2023-05-07T07:56:06.209Z,16.50
2023-05-07T07:58:08.370Z,16.61
2023-05-07T08:00:11.741Z,16.71
2023-05-07T08:02:13.773Z,16.82
2023-05-07T08:04:15.445Z,16.93
2023-05-07T08:06:17.343Z,17.04
2023-05-07T08:08:18.980Z,17.15
2023-05-07T08:10:23.092Z,17.26
2023-05-07T08:12:25.142Z,17.31
2023-05-07T08:14:28.843Z,17.39
2023-05-07T08:16:31.099Z,17.43
2023-05-07T08:18:33.215Z,17.50
2023-05-07T08:20:35.139Z,17.58
2023-05-07T08:22:36.853Z,17.66
2023-05-07T08:24:38.668Z,17.75
2023-05-07T08:26:41.964Z,17.85
2023-05-07T08:28:43.589Z,17.94
2023-05-07T08:30:45.584Z,18.04
2023-05-07T08:32:47.662Z,18.16
2023-05-07T08:34:49.529Z,18.28
2023-05-07T08:36:51.453Z,18.40
2023-05-07T08:38:54.111Z,18.51
2023-05-07T08:40:55.722Z,18.60
2023-05-07T08:42:59.857Z,18.68
2023-05-07T08:45:03.403Z,18.76
2023-05-07T08:47:08.373Z,18.84
2023-05-07T08:49:10.436Z,18.92
2023-05-07T08:51:13.727Z,18.99
2023-05-07T08:53:18.012Z,19.07
2023-05-07T08:55:19.953Z,19.13
2023-05-07T08:57:21.924Z,19.25
2023-05-07T08:59:25.324Z,19.34
2023-05-07T09:01:27.374Z,19.43
2023-05-07T09:03:29.014Z,19.52
2023-05-07T09:05:30.668Z,19.62
2023-05-07T09:07:32.497Z,19.71
2023-05-07T09:09:34.702Z,19.79
2023-05-07T09:11:36.762Z,19.86
2023-05-07T09:13:38.842Z,19.98
2023-05-07T09:15:42.286Z,20.07
2023-05-07T09:17:44.383Z,20.14
2023-05-07T09:19:46.647Z,20.21
2023-05-07T09:21:48.734Z,20.23
2023-05-07T09:23:55.045Z,20.29
2023-05-07T09:26:01.494Z,20.32
2023-05-07T09:28:04.515Z,20.35
2023-05-07T09:30:07.488Z,20.41
2023-05-07T09:32:10.559Z,20.44
2023-05-07T09:34:12.264Z,20.50
2023-05-07T09:36:14.247Z,20.57
2023-05-07T09:38:19.673Z,20.64
2023-05-07T09:40:22.118Z,20.71
2023-05-07T09:42:26.848Z,20.76
2023-05-07T09:44:28.534Z,20.79
2023-05-07T09:46:32.355Z,20.82
2023-05-07T09:48:40.001Z,20.86
2023-05-07T09:50:52.737Z,20.93
2023-05-07T09:52:55.244Z,21.00
2023-05-07T09:54:59.596Z,21.05
2023-05-07T09:57:03.315Z,21.11
2023-05-07T09:59:07.938Z,21.16
2023-05-07T10:01:13.727Z,21.19
2023-05-07T10:03:15.598Z,21.24
2023-05-07T10:05:19.391Z,21.31
2023-05-07T10:07:21.919Z,21.38
2023-05-07T10:09:24.203Z,21.47
2023-05-07T10:11:25.923Z,21.55
2023-05-07T10:13:28.489Z,21.58
2023-05-07T10:15:30.659Z,21.62
2023-05-07T10:17:33.265Z,21.62
2023-05-07T10:19:36.840Z,21.64
2023-05-07T10:21:44.869Z,21.68
2023-05-07T10:23:50.054Z,21.73
2023-05-07T10:25:53.750Z,21.81
2023-05-07T10:28:07.464Z,21.88
2023-05-07T10:30:23.739Z,21.95
2023-05-07T10:32:38.243Z,21.98
2023-05-07T10:34:45.814Z,21.98
2023-05-07T10:36:49.492Z,21.94
2023-05-07T10:38:51.370Z,21.91
2023-05-07T10:40:53.663Z,21.90
2023-05-07T10:42:56.984Z,21.90
2023-05-07T10:44:58.942Z,21.94
2023-05-07T10:47:07.832Z,21.99
2023-05-07T10:49:12.720Z,22.03
2023-05-07T10:51:22.079Z,22.11
2023-05-07T10:53:26.308Z,22.19
2023-05-07T10:55:28.141Z,22.28
2023-05-07T10:57:36.315Z,22.40
2023-05-07T10:59:38.030Z,22.49
2023-05-07T11:01:54.225Z,22.61
2023-05-07T11:04:15.334Z,22.71
2023-05-07T11:06:17.998Z,22.69
2023-05-07T11:08:19.548Z,22.71
2023-05-07T11:10:22.954Z,22.75
2023-05-07T11:12:56.990Z,22.85
2023-05-07T11:14:58.892Z,22.92
2023-05-07T11:17:03.547Z,22.97
2023-05-07T11:19:05.716Z,22.99
2023-05-07T11:21:07.303Z,23.04
2023-05-07T11:23:08.873Z,23.09
2023-05-07T11:25:11.016Z,23.14
2023-05-07T11:27:14.717Z,23.20
2023-05-07T11:29:22.150Z,23.26
2023-05-07T11:31:26.637Z,23.32
2023-05-07T11:33:28.627Z,23.32
2023-05-07T11:35:30.741Z,23.26
2023-05-07T11:37:32.692Z,23.25
2023-05-07T11:39:35.372Z,23.26
2023-05-07T11:41:38.053Z,23.23
2023-05-07T11:43:55.678Z,23.26
2023-05-07T11:46:07.173Z,23.27
2023-05-07T11:48:09.279Z,23.29
2023-05-07T11:50:11.648Z,23.31
2023-05-07T11:52:14.228Z,23.31
2023-05-07T11:54:18.638Z,23.36
2023-05-07T11:56:21.392Z,23.37
2023-05-07T11:58:24.956Z,23.41
2023-05-07T12:00:28.057Z,23.46
2023-05-07T12:02:30.035Z,23.48
2023-05-07T12:04:31.865Z,23.50
2023-05-07T12:06:38.215Z,23.58
2023-05-07T12:08:41.815Z,23.64
2023-05-07T12:10:44.098Z,23.70
2023-05-07T12:12:47.488Z,23.74
2023-05-07T12:14:49.212Z,23.73
2023-05-07T12:16:53.057Z,23.73
2023-05-07T12:18:55.112Z,23.70
2023-05-07T12:20:57.300Z,23.67
2023-05-07T12:22:59.305Z,23.64
2023-05-07T12:25:01.099Z,23.64
2023-05-07T12:27:03.249Z,23.66
2023-05-07T12:29:05.297Z,23.66
2023-05-07T12:31:09.439Z,23.68
2023-05-07T12:33:15.698Z,23.71
2023-05-07T12:35:17.834Z,23.76
2023-05-07T12:37:24.953Z,23.81
2023-05-07T12:39:26.533Z,23.84
2023-05-07T12:41:28.104Z,23.80
2023-05-07T12:43:30.703Z,23.77
2023-05-07T12:45:32.485Z,23.75
2023-05-07T12:47:34.595Z,23.69
2023-05-07T12:49:37.935Z,23.65
2023-05-07T12:51:39.691Z,23.62
2023-05-07T12:53:42.212Z,23.59
2023-05-07T12:55:45.772Z,23.59
2023-05-07T12:57:50.390Z,23.59
2023-05-07T12:59:52.184Z,23.59
2023-05-07T13:01:54.516Z,23.61
2023-05-07T13:03:56.307Z,23.63
2023-05-07T13:06:01.116Z,23.64
2023-05-07T13:08:02.979Z,23.63
2023-05-07T13:10:05.265Z,23.64
2023-05-07T13:12:07.421Z,23.64
2023-05-07T13:14:09.045Z,23.65
2023-05-07T13:16:12.507Z,23.61
2023-05-07T13:18:14.517Z,23.58
2023-05-07T13:20:16.452Z,23.51
2023-05-07T13:22:19.446Z,23.41
2023-05-07T13:24:21.012Z,23.34
2023-05-07T13:26:26.646Z,23.31
2023-05-07T13:28:28.788Z,23.29
2023-05-07T13:30:30.319Z,23.24
2023-05-07T13:32:32.063Z,23.18
2023-05-07T13:34:33.954Z,23.12
2023-05-07T13:36:35.503Z,23.11
2023-05-07T13:38:38.505Z,23.10
2023-05-07T13:40:40.109Z,23.07
2023-05-07T13:42:41.954Z,23.05
2023-05-07T13:44:43.512Z,23.02
2023-05-07T13:46:45.084Z,22.98
2023-05-07T13:48:46.673Z,22.98
2023-05-07T13:50:48.465Z,22.94
2023-05-07T13:52:50.262Z,22.93
2023-05-07T13:54:53.373Z,22.91
2023-05-07T13:56:55.010Z,22.91
2023-05-07T13:59:00.475Z,22.90
2023-05-07T14:01:02.431Z,22.87
2023-05-07T14:03:05.965Z,22.79
2023-05-07T14:05:08.197Z,22.75
2023-05-07T14:07:09.722Z,22.72
2023-05-07T14:09:11.349Z,22.67
2023-05-07T14:11:14.344Z,22.64
2023-05-07T14:13:16.117Z,22.60
2023-05-07T14:15:17.850Z,22.58
2023-05-07T14:17:19.941Z,22.58
2023-05-07T14:19:21.954Z,22.58
2023-05-07T14:21:23.809Z,22.58
2023-05-07T14:23:25.934Z,22.51
2023-05-07T14:25:29.364Z,22.45
2023-05-07T14:27:32.446Z,22.33
2023-05-07T14:29:34.401Z,22.26
2023-05-07T14:31:36.104Z,22.19
2023-05-07T14:33:39.131Z,22.11
2023-05-07T14:35:42.185Z,22.06
2023-05-07T14:37:43.981Z,22.00
2023-05-07T14:39:49.908Z,21.97
2023-05-07T14:41:52.194Z,21.92
2023-05-07T14:43:55.179Z,21.84
2023-05-07T14:45:56.999Z,21.76
2023-05-07T14:47:58.641Z,21.69
2023-05-07T14:50:00.249Z,21.63
2023-05-07T14:52:01.984Z,21.57
2023-05-07T14:54:04.148Z,21.53
2023-05-07T14:56:06.308Z,21.43
2023-05-07T14:58:08.292Z,21.36
2023-05-07T15:00:12.540Z,21.30
2023-05-07T15:02:14.502Z,21.27
2023-05-07T15:04:16.624Z,21.21
2023-05-07T15:06:18.474Z,21.15
2023-05-07T15:08:20.209Z,21.11
2023-05-07T15:10:21.970Z,21.02
2023-05-07T15:12:24.047Z,20.99
2023-05-07T15:14:25.778Z,20.95
2023-05-07T15:16:29.273Z,20.90
2023-05-07T15:18:31.104Z,20.89
2023-05-07T15:20:32.845Z,20.78
2023-05-07T15:22:35.202Z,20.71
2023-05-07T15:24:36.911Z,20.65
2023-05-07T15:26:38.475Z,20.62
2023-05-07T15:28:41.408Z,20.58
2023-05-07T15:30:43.291Z,20.57
2023-05-07T15:32:47.058Z,20.56
2023-05-07T15:34:48.751Z,20.50
2023-05-07T15:36:50.499Z,20.44
2023-05-07T15:38:52.118Z,20.35
2023-05-07T15:40:54.026Z,20.28
2023-05-07T15:42:57.324Z,20.15
2023-05-07T15:44:59.284Z,20.10
2023-05-07T15:47:01.213Z,20.07
2023-05-07T15:49:04.564Z,20.07
2023-05-07T15:51:06.258Z,20.03
2023-05-07T15:53:08.592Z,20.00
2023-05-07T15:55:10.720Z,19.98
2023-05-07T15:57:12.645Z,19.92
2023-05-07T15:59:14.304Z,19.87
2023-05-07T16:01:16.123Z,19.78
2023-05-07T16:03:20.270Z,19.71
2023-05-07T16:05:23.690Z,19.64
2023-05-07T16:07:25.302Z,19.56
2023-05-07T16:09:29.100Z,19.49
2023-05-07T16:11:30.924Z,19.42
2023-05-07T16:13:32.507Z,19.38
2023-05-07T16:15:34.115Z,19.37
2023-05-07T16:17:35.772Z,19.35
2023-05-07T16:19:37.451Z,19.33
2023-05-07T16:21:40.649Z,19.27
2023-05-07T16:23:42.548Z,19.25
2023-05-07T16:25:44.650Z,19.19
2023-05-07T16:27:47.231Z,19.11
2023-05-07T16:29:49.041Z,19.05
2023-05-07T16:31:50.876Z,18.98
2023-05-07T16:33:52.799Z,18.89
2023-05-07T16:35:55.284Z,18.80
2023-05-07T16:38:01.192Z,18.70
2023-05-07T16:40:02.982Z,18.64
2023-05-07T16:42:04.943Z,18.58
2023-05-07T16:44:06.454Z,18.53
2023-05-07T16:46:08.034Z,18.48
2023-05-07T16:48:09.763Z,18.44
2023-05-07T16:50:13.724Z,18.42
2023-05-07T16:52:15.364Z,18.36
2023-05-07T16:54:18.304Z,18.31
2023-05-07T16:56:19.915Z,18.23
2023-05-07T16:58:21.727Z,18.10
2023-05-07T17:00:23.473Z,17.98
2023-05-07T17:02:25.122Z,17.93
2023-05-07T17:04:26.791Z,17.83
2023-05-07T17:06:28.335Z,17.75
2023-05-07T17:08:29.985Z,17.70
2023-05-07T17:10:33.991Z,17.66
2023-05-07T17:12:39.194Z,17.56
2023-05-07T17:14:40.921Z,17.46
2023-05-07T17:16:43.670Z,17.39
2023-05-07T17:18:45.530Z,17.32
2023-05-07T17:20:47.228Z,17.25
2023-05-07T17:22:49.039Z,17.21
2023-05-07T17:24:50.689Z,17.22
2023-05-07T17:26:53.606Z,17.31
2023-05-07T17:28:55.236Z,17.36
2023-05-07T17:30:57.130Z,17.43
2023-05-07T17:33:09.364Z,17.50
2023-05-07T17:35:15.557Z,17.59
2023-05-07T17:37:17.230Z,17.53
2023-05-07T17:39:19.194Z,17.36
2023-05-07T17:41:20.788Z,17.23
2023-05-07T17:43:26.553Z,17.18
2023-05-07T17:45:28.428Z,17.11
2023-05-07T17:47:30.110Z,16.97
2023-05-07T17:49:31.695Z,16.87
2023-05-07T17:51:42.476Z,16.76
2023-05-07T17:53:54.919Z,16.62
2023-05-07T17:55:56.802Z,16.49
2023-05-07T17:57:58.454Z,16.38
2023-05-07T18:00:02.057Z,16.27
2023-05-07T18:02:03.702Z,16.18
2023-05-07T18:04:05.433Z,16.10
2023-05-07T18:06:09.463Z,16.00
2023-05-07T18:08:11.844Z,15.92
2023-05-07T18:10:13.591Z,15.81
2023-05-07T18:12:15.458Z,15.69
2023-05-07T18:14:17.215Z,15.57
2023-05-07T18:16:20.432Z,15.47
2023-05-07T18:18:22.076Z,15.33
2023-05-07T18:20:23.778Z,15.23
2023-05-07T18:22:25.660Z,15.14
2023-05-07T18:24:27.294Z,15.07
2023-05-07T18:26:29.105Z,14.99
2023-05-07T18:28:30.733Z,14.91
2023-05-07T18:30:32.561Z,14.80
2023-05-07T18:32:35.599Z,14.69
2023-05-07T18:34:37.222Z,14.63
2023-05-07T18:36:38.931Z,14.53
2023-05-07T18:38:40.590Z,14.46
2023-05-07T18:40:42.205Z,14.36
2023-05-07T18:42:43.721Z,14.28
2023-05-07T18:44:46.887Z,14.21
2023-05-07T18:46:48.761Z,14.13
2023-05-07T18:48:51.869Z,14.07
2023-05-07T18:50:53.532Z,13.98
2023-05-07T18:52:55.152Z,13.89
2023-05-07T18:54:56.981Z,13.80
2023-05-07T18:57:00.052Z,13.71
2023-05-07T18:59:01.772Z,13.65
2023-05-07T19:01:05.046Z,13.57
2023-05-07T19:03:06.904Z,13.51
2023-05-07T19:05:10.304Z,13.44
2023-05-07T19:07:12.004Z,13.38
2023-05-07T19:09:13.622Z,13.33
2023-05-07T19:11:15.175Z,13.28
2023-05-07T19:13:17.435Z,13.24
2023-05-07T19:15:19.482Z,13.18
2023-05-07T19:17:21.343Z,13.11
2023-05-07T19:19:23.499Z,13.06
2023-05-07T19:21:26.444Z,13.00
2023-05-07T19:23:30.209Z,12.95
2023-05-07T19:25:32.036Z,12.91
2023-05-07T19:27:33.571Z,12.87
2023-05-07T19:29:35.342Z,12.83
2023-05-07T19:31:37.532Z,12.78
2023-05-07T19:33:39.213Z,12.72
2023-05-07T19:35:41.053Z,12.65
2023-05-07T19:37:44.038Z,12.61
2023-05-07T19:39:46.438Z,12.58
2023-05-07T19:41:48.302Z,12.53
2023-05-07T19:43:50.621Z,12.48
2023-05-07T19:45:53.020Z,12.44
2023-05-07T19:47:54.617Z,12.40
2023-05-07T19:49:56.408Z,12.37
2023-05-07T19:51:57.960Z,12.32
2023-05-07T19:54:01.988Z,12.29
2023-05-07T19:56:05.036Z,12.23
2023-05-07T19:58:06.951Z,12.19
2023-05-07T20:00:09.805Z,12.14
2023-05-07T20:02:11.434Z,12.10
2023-05-07T20:04:13.088Z,12.06
2023-05-07T20:06:15.248Z,12.03
2023-05-07T20:08:16.913Z,11.98
2023-05-07T20:10:20.287Z,11.94
2023-05-07T20:12:22.065Z,11.91
2023-05-07T20:14:23.698Z,11.86
2023-05-07T20:16:25.376Z,11.83
2023-05-07T20:18:28.684Z,11.79
2023-05-07T20:20:30.471Z,11.76
2023-05-07T20:22:32.468Z,11.73
2023-05-07T20:24:37.194Z,11.68
2023-05-07T20:26:43.024Z,11.64
2023-05-07T20:28:45.134Z,11.61
2023-05-07T20:30:46.746Z,11.57
2023-05-07T20:32:48.599Z,11.54
2023-05-07T20:34:50.751Z,11.50
2023-05-07T20:36:52.623Z,11.46
2023-05-07T20:38:54.900Z,11.43
2023-05-07T20:40:56.947Z,11.38
2023-05-07T20:42:59.993Z,11.35
2023-05-07T20:45:03.575Z,11.30
2023-05-07T20:47:05.766Z,11.26
2023-05-07T20:49:07.710Z,11.20
2023-05-07T20:51:09.315Z,11.18
2023-05-07T20:53:11.094Z,11.14
2023-05-07T20:55:12.741Z,11.09
2023-05-07T20:57:14.337Z,11.06
2023-05-07T20:59:17.376Z,11.02
2023-05-07T21:01:19.143Z,10.99
2023-05-07T21:03:21.972Z,10.97
2023-05-07T21:05:23.570Z,10.93
2023-05-07T21:07:25.361Z,10.90
2023-05-07T21:09:29.037Z,10.87
2023-05-07T21:11:30.751Z,10.84
2023-05-07T21:13:32.509Z,10.82
2023-05-07T21:15:35.931Z,10.82
2023-05-07T21:17:38.126Z,10.79
2023-05-07T21:19:39.944Z,10.77
2023-05-07T21:21:42.103Z,10.73
2023-05-07T21:23:43.996Z,10.72
2023-05-07T21:25:45.686Z,10.72
2023-05-07T21:27:47.614Z,10.71
2023-05-07T21:29:49.232Z,10.70
2023-05-07T21:31:52.502Z,10.70
2023-05-07T21:33:54.089Z,10.71
2023-05-07T21:35:55.711Z,10.69
2023-05-07T21:37:57.253Z,10.69
2023-05-07T21:39:59.373Z,10.69
2023-05-07T21:42:00.901Z,10.69
2023-05-07T21:44:02.584Z,10.67
2023-05-07T21:46:06.603Z,10.65
2023-05-07T21:48:13.962Z,10.64
2023-05-07T21:50:16.258Z,10.59
2023-05-07T21:52:18.797Z,10.56
2023-05-07T21:54:20.680Z,10.54
2023-05-07T21:56:22.309Z,10.53
2023-05-07T21:58:24.177Z,10.51
2023-05-07T22:00:26.016Z,10.49
2023-05-07T22:02:27.671Z,10.47
2023-05-07T22:04:30.937Z,10.46
2023-05-07T22:06:32.549Z,10.42
2023-05-07T22:08:34.154Z,10.41
2023-05-07T22:10:36.067Z,10.38
2023-05-07T22:12:38.650Z,10.36
2023-05-07T22:14:40.221Z,10.34
2023-05-07T22:16:42.143Z,10.31
2023-05-07T22:18:43.744Z,10.28
2023-05-07T22:20:46.917Z,10.24
2023-05-07T22:22:51.213Z,10.21
2023-05-07T22:24:54.032Z,10.19
2023-05-07T22:26:55.968Z,10.18
2023-05-07T22:28:57.525Z,10.16
2023-05-07T22:30:59.365Z,10.14
2023-05-07T22:33:01.311Z,10.12
2023-05-07T22:35:03.134Z,10.09
2023-05-07T22:37:06.372Z,10.05
2023-05-07T22:39:07.920Z,10.03
2023-05-07T22:41:09.602Z,9.97
2023-05-07T22:43:11.261Z,9.98
2023-05-07T22:45:12.913Z,9.95
2023-05-07T22:47:14.718Z,9.95
2023-05-07T22:49:16.362Z,9.93
2023-05-07T22:51:18.052Z,9.91
2023-05-07T22:53:21.461Z,9.90
2023-05-07T22:55:23.204Z,9.89
2023-05-07T22:57:24.964Z,9.89
2023-05-07T22:59:26.595Z,9.87
2023-05-07T23:01:28.273Z,9.86
2023-05-07T23:03:30.215Z,9.85
2023-05-07T23:05:31.932Z,9.84
2023-05-07T23:07:33.709Z,9.82
2023-05-07T23:09:36.779Z,9.77
2023-05-07T23:11:38.581Z,9.78
2023-05-07T23:13:40.214Z,9.76
2023-05-07T23:15:42.888Z,9.74
2023-05-07T23:17:45.903Z,9.70
2023-05-07T23:19:48.012Z,9.68
2023-05-07T23:21:49.658Z,9.66
2023-05-07T23:23:51.303Z,9.63
2023-05-07T23:25:54.355Z,9.60
2023-05-07T23:27:56.162Z,9.58
2023-05-07T23:29:58.677Z,9.55
2023-05-07T23:32:00.993Z,9.52
2023-05-07T23:34:02.842Z,9.51
2023-05-07T23:36:06.631Z,9.48
2023-05-07T23:38:08.185Z,9.45
2023-05-07T23:40:10.133Z,9.42
2023-05-07T23:42:15.360Z,9.38
2023-05-07T23:44:17.142Z,9.34
2023-05-07T23:46:20.463Z,9.31
2023-05-07T23:48:24.675Z,9.28
2023-05-07T23:50:26.940Z,9.25
2023-05-07T23:52:34.621Z,9.22
2023-05-07T23:54:36.415Z,9.19
2023-05-07T23:56:38.309Z,9.15
2023-05-07T23:58:41.388Z,9.13
